This is the latest recevied weather packets stored in our database for station/object ALANSN-2. If no packets are shown the sender has not sent any weather packets the latest 10 day(s).
| Time | Temp. | Humidity | Pressure | Rain* | Wind** | Luminosity | Snow |
|---|---|---|---|---|---|---|---|
| 1787961720 | 20° C | 79% | 1030.3 hPa | 0 mm | - | 10 W/m² | - |
| 1787961418 | 21.11° C | 75% | 1030.3 hPa | 0 mm | - | 16 W/m² | - |
| 1787961120 | 21.11° C | 75% | 1030.3 hPa | 0 mm | - | 16 W/m² | - |
| 1787960820 | 22.22° C | 73% | 1030.2 hPa | 0 mm | - | 16 W/m² | - |
| 1787960520 | 24.44° C | 62% | 1030.4 hPa | 0 mm | - | 32 W/m² | - |
| 1787960221 | 24.44° C | 62% | 1030.4 hPa | 0 mm | - | 32 W/m² | - |
| 1787959920 | 25.56° C | 61% | 1030.5 hPa | 0 mm | - | 35 W/m² | - |
| 1787959620 | 26.11° C | 57% | 1030.7 hPa | 0 mm | - | 65 W/m² | - |
| 1787959319 | 26.11° C | 57% | 1030.7 hPa | 0 mm | - | 65 W/m² | - |
| 1787959018 | 26.11° C | 57% | 1030.8 hPa | 0 mm | - | 72 W/m² | - |
| 1787958720 | 25.56° C | 58% | 1030.5 hPa | 0 mm | - | 103 W/m² | - |
| 1787958420 | 25.56° C | 58% | 1030.5 hPa | 0 mm | - | 103 W/m² | - |
| 1787958120 | 25.56° C | 57% | 1030.6 hPa | 0 mm | - | 104 W/m² | - |
| 1787957820 | 25° C | 58% | 1030.6 hPa | 0 mm | - | 118 W/m² | - |
| 1787957520 | 23.33° C | 60% | 1030.7 hPa | 0 mm | - | 143 W/m² | - |
| 1787957220 | 23.33° C | 57% | 1030.6 hPa | 0 mm | - | 144 W/m² | - |
| 1787956920 | 23.33° C | 57% | 1030.6 hPa | 0 mm | - | 160 W/m² | - |
| 1787956620 | 23.33° C | 59% | 1031 hPa | 0 mm | - | 179 W/m² | - |
| 1787956321 | 23.33° C | 57% | 1030.8 hPa | 0 mm | - | 186 W/m² | - |
| 1787956020 | 23.33° C | 59% | 1030.8 hPa | 0 mm | - | 197 W/m² | - |
| 1787955720 | 23.33° C | 61% | 1031 hPa | 0 mm | - | 226 W/m² | - |
| 1787955420 | 23.33° C | 62% | 1030.9 hPa | 0 mm | - | 230 W/m² | - |
| 1787955120 | 23.33° C | 62% | 1030.6 hPa | 0 mm | - | 246 W/m² | - |
| 1787954820 | 24.44° C | 58% | 1030.8 hPa | 0 mm | - | 265 W/m² | - |
| 1787954520 | 24.44° C | 58% | 1030.7 hPa | 0 mm | - | 266 W/m² | - |
* Rain latest hour (hover to see other rain measurements)
** Current wind speed in m/s (hover to see current wind gust speed)